sensor_id;sensor_type;location;lat;lon;timestamp;P1;durP1;ratioP1;P2;durP2;ratioP2
28822;SDS011;15961;54.678;9.110;2022-09-09T00:09:27;61.60;;;27.80;;
28822;SDS011;15961;54.678;9.110;2022-09-09T00:11:55;55.10;;;29.30;;
28822;SDS011;15961;54.678;9.110;2022-09-09T00:17:34;54.72;;;28.02;;
28822;SDS011;15961;54.678;9.110;2022-09-09T00:20:11;60.85;;;28.85;;
28822;SDS011;15961;54.678;9.110;2022-09-09T00:22:46;61.03;;;29.80;;
28822;SDS011;15961;54.678;9.110;2022-09-09T00:25:28;81.57;;;37.58;;
28822;SDS011;15961;54.678;9.110;2022-09-09T00:28:13;58.97;;;29.13;;
28822;SDS011;15961;54.678;9.110;2022-09-09T00:30:44;70.47;;;30.30;;
28822;SDS011;15961;54.678;9.110;2022-09-09T00:33:13;65.15;;;31.08;;
28822;SDS011;15961;54.678;9.110;2022-09-09T00:35:44;56.67;;;27.98;;
28822;SDS011;15961;54.678;9.110;2022-09-09T00:38:28;54.40;;;27.42;;
28822;SDS011;15961;54.678;9.110;2022-09-09T00:41:18;60.00;;;27.45;;
28822;SDS011;15961;54.678;9.110;2022-09-09T00:43:55;52.28;;;27.35;;
28822;SDS011;15961;54.678;9.110;2022-09-09T00:46:32;60.10;;;28.60;;
28822;SDS011;15961;54.678;9.110;2022-09-09T00:55:05;48.88;;;24.92;;
28822;SDS011;15961;54.678;9.110;2022-09-09T00:57:51;52.83;;;26.17;;
28822;SDS011;15961;54.678;9.110;2022-09-09T01:00:27;57.45;;;27.70;;
28822;SDS011;15961;54.678;9.110;2022-09-09T01:05:49;59.97;;;28.08;;
28822;SDS011;15961;54.678;9.110;2022-09-09T01:11:43;73.72;;;31.60;;
28822;SDS011;15961;54.678;9.110;2022-09-09T01:14:24;86.85;;;33.90;;
28822;SDS011;15961;54.678;9.110;2022-09-09T01:17:03;86.57;;;34.15;;
28822;SDS011;15961;54.678;9.110;2022-09-09T01:20:17;81.68;;;33.85;;
28822;SDS011;15961;54.678;9.110;2022-09-09T01:25:13;79.70;;;34.72;;
28822;SDS011;15961;54.678;9.110;2022-09-09T01:27:46;74.22;;;33.20;;
28822;SDS011;15961;54.678;9.110;2022-09-09T01:30:15;73.15;;;34.42;;
28822;SDS011;15961;54.678;9.110;2022-09-09T01:32:44;86.88;;;35.33;;
28822;SDS011;15961;54.678;9.110;2022-09-09T01:37:55;101.90;;;39.90;;
28822;SDS011;15961;54.678;9.110;2022-09-09T01:40:20;110.07;;;41.03;;
28822;SDS011;15961;54.678;9.110;2022-09-09T01:42:47;100.35;;;37.22;;
28822;SDS011;15961;54.678;9.110;2022-09-09T01:45:12;78.72;;;31.60;;
28822;SDS011;15961;54.678;9.110;2022-09-09T01:47:38;95.43;;;35.83;;
28822;SDS011;15961;54.678;9.110;2022-09-09T01:50:04;119.70;;;40.40;;
28822;SDS011;15961;54.678;9.110;2022-09-09T01:52:30;103.50;;;37.70;;
28822;SDS011;15961;54.678;9.110;2022-09-09T01:54:58;116.32;;;39.47;;
28822;SDS011;15961;54.678;9.110;2022-09-09T01:57:24;126.70;;;44.00;;
28822;SDS011;15961;54.678;9.110;2022-09-09T02:00:00;117.38;;;42.05;;
28822;SDS011;15961;54.678;9.110;2022-09-09T02:02:39;133.77;;;46.80;;
28822;SDS011;15961;54.678;9.110;2022-09-09T02:08:11;113.28;;;43.80;;
28822;SDS011;15961;54.678;9.110;2022-09-09T02:10:45;109.38;;;44.50;;
28822;SDS011;15961;54.678;9.110;2022-09-09T02:13:17;116.25;;;44.08;;
28822;SDS011;15961;54.678;9.110;2022-09-09T02:15:52;113.97;;;46.15;;
28822;SDS011;15961;54.678;9.110;2022-09-09T02:18:26;128.95;;;47.15;;
28822;SDS011;15961;54.678;9.110;2022-09-09T02:20:55;102.20;;;44.28;;
28822;SDS011;15961;54.678;9.110;2022-09-09T02:23:23;91.28;;;39.67;;
28822;SDS011;15961;54.678;9.110;2022-09-09T02:25:49;102.55;;;43.00;;
28822;SDS011;15961;54.678;9.110;2022-09-09T02:28:17;105.93;;;44.13;;
28822;SDS011;15961;54.678;9.110;2022-09-09T02:30:46;97.40;;;40.97;;
28822;SDS011;15961;54.678;9.110;2022-09-09T02:33:18;118.45;;;47.53;;
28822;SDS011;15961;54.678;9.110;2022-09-09T02:35:44;106.80;;;46.85;;
28822;SDS011;15961;54.678;9.110;2022-09-09T02:38:12;108.32;;;44.65;;
28822;SDS011;15961;54.678;9.110;2022-09-09T02:40:40;102.50;;;43.40;;
28822;SDS011;15961;54.678;9.110;2022-09-09T02:43:05;89.75;;;42.33;;
28822;SDS011;15961;54.678;9.110;2022-09-09T02:45:33;92.28;;;43.38;;
28822;SDS011;15961;54.678;9.110;2022-09-09T02:48:14;80.38;;;36.67;;
28822;SDS011;15961;54.678;9.110;2022-09-09T02:50:54;79.05;;;39.33;;
28822;SDS011;15961;54.678;9.110;2022-09-09T02:53:39;90.32;;;42.03;;
28822;SDS011;15961;54.678;9.110;2022-09-09T02:56:12;89.57;;;42.00;;
28822;SDS011;15961;54.678;9.110;2022-09-09T02:58:40;92.85;;;44.47;;
28822;SDS011;15961;54.678;9.110;2022-09-09T03:01:07;100.35;;;47.85;;
28822;SDS011;15961;54.678;9.110;2022-09-09T03:03:33;108.53;;;44.55;;
28822;SDS011;15961;54.678;9.110;2022-09-09T03:05:59;105.85;;;47.30;;
28822;SDS011;15961;54.678;9.110;2022-09-09T03:08:25;84.07;;;41.67;;
28822;SDS011;15961;54.678;9.110;2022-09-09T03:10:53;89.32;;;41.63;;
28822;SDS011;15961;54.678;9.110;2022-09-09T03:13:19;84.30;;;43.60;;
28822;SDS011;15961;54.678;9.110;2022-09-09T03:15:44;84.30;;;43.95;;
28822;SDS011;15961;54.678;9.110;2022-09-09T03:18:10;71.03;;;36.92;;
28822;SDS011;15961;54.678;9.110;2022-09-09T03:20:36;60.70;;;35.53;;
28822;SDS011;15961;54.678;9.110;2022-09-09T03:23:01;65.05;;;35.30;;
28822;SDS011;15961;54.678;9.110;2022-09-09T03:25:27;64.97;;;34.20;;
28822;SDS011;15961;54.678;9.110;2022-09-09T03:27:54;79.32;;;40.25;;
28822;SDS011;15961;54.678;9.110;2022-09-09T03:30:23;66.07;;;37.13;;
28822;SDS011;15961;54.678;9.110;2022-09-09T03:32:50;61.20;;;36.95;;
28822;SDS011;15961;54.678;9.110;2022-09-09T03:35:16;82.38;;;41.88;;
28822;SDS011;15961;54.678;9.110;2022-09-09T03:37:42;85.25;;;41.92;;
28822;SDS011;15961;54.678;9.110;2022-09-09T03:40:08;97.82;;;49.85;;
28822;SDS011;15961;54.678;9.110;2022-09-09T03:42:35;94.63;;;45.65;;
28822;SDS011;15961;54.678;9.110;2022-09-09T03:45:02;87.95;;;44.80;;
28822;SDS011;15961;54.678;9.110;2022-09-09T03:47:32;102.95;;;51.78;;
28822;SDS011;15961;54.678;9.110;2022-09-09T03:49:58;121.88;;;55.00;;
28822;SDS011;15961;54.678;9.110;2022-09-09T03:52:23;107.30;;;53.50;;
28822;SDS011;15961;54.678;9.110;2022-09-09T03:54:51;110.82;;;52.53;;
28822;SDS011;15961;54.678;9.110;2022-09-09T03:57:17;119.03;;;55.58;;
28822;SDS011;15961;54.678;9.110;2022-09-09T03:59:43;119.38;;;53.58;;
28822;SDS011;15961;54.678;9.110;2022-09-09T04:02:09;115.63;;;54.53;;
28822;SDS011;15961;54.678;9.110;2022-09-09T04:04:35;154.05;;;60.08;;
28822;SDS011;15961;54.678;9.110;2022-09-09T04:07:00;160.45;;;63.65;;
28822;SDS011;15961;54.678;9.110;2022-09-09T04:09:27;162.60;;;59.80;;
28822;SDS011;15961;54.678;9.110;2022-09-09T04:11:52;116.40;;;54.05;;
28822;SDS011;15961;54.678;9.110;2022-09-09T04:14:18;142.45;;;57.00;;
28822;SDS011;15961;54.678;9.110;2022-09-09T04:16:44;131.88;;;56.17;;
28822;SDS011;15961;54.678;9.110;2022-09-09T04:19:11;126.90;;;56.95;;
28822;SDS011;15961;54.678;9.110;2022-09-09T04:21:38;183.68;;;58.60;;
28822;SDS011;15961;54.678;9.110;2022-09-09T04:24:06;213.65;;;57.67;;
28822;SDS011;15961;54.678;9.110;2022-09-09T04:26:32;122.00;;;53.67;;
28822;SDS011;15961;54.678;9.110;2022-09-09T04:28:58;147.48;;;52.95;;
28822;SDS011;15961;54.678;9.110;2022-09-09T04:31:23;114.75;;;50.10;;
28822;SDS011;15961;54.678;9.110;2022-09-09T04:33:52;102.80;;;48.72;;
28822;SDS011;15961;54.678;9.110;2022-09-09T04:36:18;155.98;;;55.92;;
28822;SDS011;15961;54.678;9.110;2022-09-09T04:38:44;136.73;;;52.92;;
28822;SDS011;15961;54.678;9.110;2022-09-09T04:41:11;149.68;;;53.90;;
28822;SDS011;15961;54.678;9.110;2022-09-09T04:43:37;160.50;;;54.88;;
28822;SDS011;15961;54.678;9.110;2022-09-09T04:46:04;111.53;;;51.25;;
28822;SDS011;15961;54.678;9.110;2022-09-09T04:48:30;283.00;;;54.72;;
28822;SDS011;15961;54.678;9.110;2022-09-09T04:51:00;277.23;;;56.40;;
28822;SDS011;15961;54.678;9.110;2022-09-09T04:53:29;96.80;;;47.45;;
28822;SDS011;15961;54.678;9.110;2022-09-09T04:56:08;99.97;;;46.13;;
28822;SDS011;15961;54.678;9.110;2022-09-09T04:58:36;88.75;;;44.42;;
28822;SDS011;15961;54.678;9.110;2022-09-09T05:01:06;108.25;;;45.08;;
28822;SDS011;15961;54.678;9.110;2022-09-09T05:03:34;124.55;;;41.83;;
28822;SDS011;15961;54.678;9.110;2022-09-09T05:06:09;152.85;;;47.22;;
28822;SDS011;15961;54.678;9.110;2022-09-09T05:08:37;182.52;;;42.88;;
28822;SDS011;15961;54.678;9.110;2022-09-09T05:11:04;180.00;;;44.67;;
28822;SDS011;15961;54.678;9.110;2022-09-09T05:13:45;88.93;;;41.70;;
28822;SDS011;15961;54.678;9.110;2022-09-09T05:16:11;100.20;;;41.40;;
28822;SDS011;15961;54.678;9.110;2022-09-09T05:18:38;74.53;;;39.10;;
28822;SDS011;15961;54.678;9.110;2022-09-09T05:21:04;155.43;;;43.92;;
28822;SDS011;15961;54.678;9.110;2022-09-09T05:23:31;229.10;;;47.67;;
28822;SDS011;15961;54.678;9.110;2022-09-09T05:25:58;125.55;;;42.83;;
28822;SDS011;15961;54.678;9.110;2022-09-09T05:28:25;149.90;;;44.72;;
28822;SDS011;15961;54.678;9.110;2022-09-09T05:30:55;104.45;;;44.13;;
28822;SDS011;15961;54.678;9.110;2022-09-09T05:35:55;81.35;;;41.13;;
28822;SDS011;15961;54.678;9.110;2022-09-09T05:40:50;154.25;;;48.08;;
28822;SDS011;15961;54.678;9.110;2022-09-09T05:43:17;120.25;;;45.03;;
28822;SDS011;15961;54.678;9.110;2022-09-09T05:45:44;105.05;;;44.95;;
28822;SDS011;15961;54.678;9.110;2022-09-09T05:48:12;141.15;;;47.90;;
28822;SDS011;15961;54.678;9.110;2022-09-09T05:50:41;238.07;;;50.70;;
28822;SDS011;15961;54.678;9.110;2022-09-09T05:53:08;100.10;;;46.03;;
28822;SDS011;15961;54.678;9.110;2022-09-09T05:55:35;176.35;;;49.33;;
28822;SDS011;15961;54.678;9.110;2022-09-09T05:58:00;93.13;;;44.60;;
28822;SDS011;15961;54.678;9.110;2022-09-09T06:00:26;87.32;;;44.17;;
28822;SDS011;15961;54.678;9.110;2022-09-09T06:02:52;89.15;;;42.53;;
28822;SDS011;15961;54.678;9.110;2022-09-09T06:05:18;79.90;;;39.40;;
28822;SDS011;15961;54.678;9.110;2022-09-09T06:07:44;63.65;;;35.75;;
28822;SDS011;15961;54.678;9.110;2022-09-09T06:10:10;78.68;;;38.60;;
28822;SDS011;15961;54.678;9.110;2022-09-09T06:12:38;100.68;;;41.15;;
28822;SDS011;15961;54.678;9.110;2022-09-09T06:15:04;99.32;;;41.10;;
28822;SDS011;15961;54.678;9.110;2022-09-09T06:17:30;71.75;;;38.95;;
28822;SDS011;15961;54.678;9.110;2022-09-09T06:19:57;66.28;;;36.58;;
28822;SDS011;15961;54.678;9.110;2022-09-09T06:22:23;89.13;;;38.88;;
28822;SDS011;15961;54.678;9.110;2022-09-09T06:24:48;97.20;;;43.42;;
28822;SDS011;15961;54.678;9.110;2022-09-09T06:27:14;64.05;;;34.92;;
28822;SDS011;15961;54.678;9.110;2022-09-09T06:29:39;122.35;;;43.55;;
28822;SDS011;15961;54.678;9.110;2022-09-09T06:32:05;70.53;;;36.95;;
28822;SDS011;15961;54.678;9.110;2022-09-09T06:34:33;78.70;;;41.28;;
28822;SDS011;15961;54.678;9.110;2022-09-09T06:36:59;98.90;;;40.25;;
28822;SDS011;15961;54.678;9.110;2022-09-09T06:39:25;67.35;;;37.13;;
28822;SDS011;15961;54.678;9.110;2022-09-09T06:41:51;98.78;;;45.25;;
28822;SDS011;15961;54.678;9.110;2022-09-09T06:44:18;80.93;;;42.28;;
28822;SDS011;15961;54.678;9.110;2022-09-09T06:46:44;89.63;;;44.13;;
28822;SDS011;15961;54.678;9.110;2022-09-09T06:49:12;78.05;;;40.97;;
28822;SDS011;15961;54.678;9.110;2022-09-09T06:51:38;75.97;;;41.83;;
28822;SDS011;15961;54.678;9.110;2022-09-09T06:54:07;72.40;;;41.92;;
28822;SDS011;15961;54.678;9.110;2022-09-09T06:56:34;70.88;;;41.58;;
28822;SDS011;15961;54.678;9.110;2022-09-09T06:59:03;79.32;;;42.22;;
28822;SDS011;15961;54.678;9.110;2022-09-09T07:01:33;75.75;;;39.80;;
28822;SDS011;15961;54.678;9.110;2022-09-09T07:04:05;60.45;;;37.83;;
28822;SDS011;15961;54.678;9.110;2022-09-09T07:06:36;59.47;;;36.65;;
28822;SDS011;15961;54.678;9.110;2022-09-09T07:09:04;70.22;;;38.92;;
28822;SDS011;15961;54.678;9.110;2022-09-09T07:11:32;74.13;;;41.08;;
28822;SDS011;15961;54.678;9.110;2022-09-09T07:13:59;57.95;;;37.35;;
28822;SDS011;15961;54.678;9.110;2022-09-09T07:16:26;62.95;;;38.85;;
28822;SDS011;15961;54.678;9.110;2022-09-09T07:18:53;61.58;;;37.55;;
28822;SDS011;15961;54.678;9.110;2022-09-09T07:21:22;65.80;;;40.22;;
28822;SDS011;15961;54.678;9.110;2022-09-09T07:23:49;84.88;;;40.13;;
28822;SDS011;15961;54.678;9.110;2022-09-09T07:26:16;68.18;;;39.35;;
28822;SDS011;15961;54.678;9.110;2022-09-09T07:28:44;59.35;;;37.42;;
28822;SDS011;15961;54.678;9.110;2022-09-09T07:31:13;69.07;;;37.70;;
28822;SDS011;15961;54.678;9.110;2022-09-09T07:33:41;61.22;;;37.03;;
28822;SDS011;15961;54.678;9.110;2022-09-09T07:36:09;65.10;;;35.78;;
28822;SDS011;15961;54.678;9.110;2022-09-09T07:38:53;66.55;;;38.70;;
28822;SDS011;15961;54.678;9.110;2022-09-09T07:43:50;59.30;;;36.28;;
28822;SDS011;15961;54.678;9.110;2022-09-09T07:46:17;74.95;;;42.55;;
28822;SDS011;15961;54.678;9.110;2022-09-09T07:48:46;67.78;;;40.92;;
28822;SDS011;15961;54.678;9.110;2022-09-09T07:51:16;64.20;;;37.53;;
28822;SDS011;15961;54.678;9.110;2022-09-09T07:53:44;68.57;;;41.13;;
28822;SDS011;15961;54.678;9.110;2022-09-09T07:56:12;61.45;;;37.35;;
28822;SDS011;15961;54.678;9.110;2022-09-09T07:58:39;68.22;;;41.55;;
28822;SDS011;15961;54.678;9.110;2022-09-09T08:03:35;67.63;;;42.95;;
28822;SDS011;15961;54.678;9.110;2022-09-09T08:06:01;79.70;;;45.78;;
28822;SDS011;15961;54.678;9.110;2022-09-09T08:08:28;90.30;;;50.83;;
28822;SDS011;15961;54.678;9.110;2022-09-09T08:11:00;76.50;;;49.05;;
28822;SDS011;15961;54.678;9.110;2022-09-09T08:13:30;88.90;;;47.65;;
28822;SDS011;15961;54.678;9.110;2022-09-09T08:16:03;78.72;;;46.50;;
28822;SDS011;15961;54.678;9.110;2022-09-09T08:18:36;70.80;;;41.88;;
28822;SDS011;15961;54.678;9.110;2022-09-09T08:21:09;79.63;;;47.42;;
28822;SDS011;15961;54.678;9.110;2022-09-09T08:23:55;84.63;;;48.78;;
28822;SDS011;15961;54.678;9.110;2022-09-09T08:26:23;87.65;;;52.00;;
28822;SDS011;15961;54.678;9.110;2022-09-09T08:28:54;87.72;;;49.38;;
28822;SDS011;15961;54.678;9.110;2022-09-09T08:31:24;77.05;;;46.33;;
28822;SDS011;15961;54.678;9.110;2022-09-09T08:33:53;77.78;;;44.90;;
28822;SDS011;15961;54.678;9.110;2022-09-09T08:36:20;75.32;;;45.03;;
28822;SDS011;15961;54.678;9.110;2022-09-09T08:38:48;69.93;;;43.33;;
28822;SDS011;15961;54.678;9.110;2022-09-09T08:55:28;84.18;;;47.83;;
28822;SDS011;15961;54.678;9.110;2022-09-09T08:58:47;78.65;;;47.95;;
28822;SDS011;15961;54.678;9.110;2022-09-09T09:00:57;72.25;;;47.15;;
28822;SDS011;15961;54.678;9.110;2022-09-09T09:11:58;65.40;;;42.42;;
28822;SDS011;15961;54.678;9.110;2022-09-09T09:14:27;63.38;;;42.60;;
28822;SDS011;15961;54.678;9.110;2022-09-09T09:19:35;53.58;;;37.88;;
28822;SDS011;15961;54.678;9.110;2022-09-09T09:24:52;59.55;;;38.70;;
28822;SDS011;15961;54.678;9.110;2022-09-09T09:28:00;51.53;;;36.05;;
28822;SDS011;15961;54.678;9.110;2022-09-09T09:30:41;45.42;;;34.53;;
28822;SDS011;15961;54.678;9.110;2022-09-09T09:33:14;47.65;;;33.05;;
28822;SDS011;15961;54.678;9.110;2022-09-09T09:35:48;42.22;;;30.27;;
28822;SDS011;15961;54.678;9.110;2022-09-09T09:38:18;42.97;;;30.00;;
28822;SDS011;15961;54.678;9.110;2022-09-09T09:40:51;34.97;;;27.42;;
28822;SDS011;15961;54.678;9.110;2022-09-09T09:46:03;35.58;;;24.90;;
28822;SDS011;15961;54.678;9.110;2022-09-09T09:48:29;32.85;;;23.65;;
28822;SDS011;15961;54.678;9.110;2022-09-09T09:50:59;30.65;;;21.33;;
28822;SDS011;15961;54.678;9.110;2022-09-09T09:53:32;26.80;;;21.48;;
28822;SDS011;15961;54.678;9.110;2022-09-09T10:01:04;29.52;;;23.17;;
28822;SDS011;15961;54.678;9.110;2022-09-09T10:03:32;32.25;;;23.80;;
28822;SDS011;15961;54.678;9.110;2022-09-09T10:06:03;29.80;;;23.20;;
28822;SDS011;15961;54.678;9.110;2022-09-09T10:08:29;28.13;;;22.00;;
28822;SDS011;15961;54.678;9.110;2022-09-09T10:19:00;26.08;;;19.00;;
28822;SDS011;15961;54.678;9.110;2022-09-09T10:27:03;25.83;;;20.52;;
28822;SDS011;15961;54.678;9.110;2022-09-09T10:32:28;29.02;;;19.50;;
28822;SDS011;15961;54.678;9.110;2022-09-09T10:42:56;32.05;;;22.90;;
28822;SDS011;15961;54.678;9.110;2022-09-09T10:45:33;32.00;;;25.38;;
28822;SDS011;15961;54.678;9.110;2022-09-09T10:48:31;43.90;;;33.90;;
28822;SDS011;15961;54.678;9.110;2022-09-09T10:54:13;46.80;;;38.20;;
28822;SDS011;15961;54.678;9.110;2022-09-09T10:56:51;44.17;;;39.33;;
28822;SDS011;15961;54.678;9.110;2022-09-09T10:59:23;45.65;;;36.92;;
28822;SDS011;15961;54.678;9.110;2022-09-09T11:01:56;43.47;;;35.55;;
28822;SDS011;15961;54.678;9.110;2022-09-09T11:04:48;38.95;;;30.35;;
28822;SDS011;15961;54.678;9.110;2022-09-09T11:08:01;39.85;;;29.92;;
28822;SDS011;15961;54.678;9.110;2022-09-09T11:10:35;36.78;;;29.52;;
28822;SDS011;15961;54.678;9.110;2022-09-09T11:13:25;32.10;;;27.00;;
28822;SDS011;15961;54.678;9.110;2022-09-09T11:15:58;33.00;;;27.90;;
28822;SDS011;15961;54.678;9.110;2022-09-09T11:18:29;34.25;;;26.58;;
28822;SDS011;15961;54.678;9.110;2022-09-09T11:21:02;29.53;;;20.30;;
28822;SDS011;15961;54.678;9.110;2022-09-09T11:26:18;18.38;;;15.70;;
28822;SDS011;15961;54.678;9.110;2022-09-09T11:31:44;27.08;;;19.65;;
28822;SDS011;15961;54.678;9.110;2022-09-09T11:37:26;27.35;;;18.17;;
28822;SDS011;15961;54.678;9.110;2022-09-09T11:40:14;22.30;;;17.38;;
28822;SDS011;15961;54.678;9.110;2022-09-09T11:42:42;23.15;;;17.00;;
28822;SDS011;15961;54.678;9.110;2022-09-09T11:45:09;17.90;;;15.85;;
28822;SDS011;15961;54.678;9.110;2022-09-09T11:47:36;22.35;;;15.38;;
28822;SDS011;15961;54.678;9.110;2022-09-09T11:52:40;18.02;;;14.07;;
28822;SDS011;15961;54.678;9.110;2022-09-09T11:55:27;21.83;;;14.40;;
28822;SDS011;15961;54.678;9.110;2022-09-09T11:58:05;14.50;;;10.38;;
28822;SDS011;15961;54.678;9.110;2022-09-09T12:00:47;12.00;;;9.95;;
28822;SDS011;15961;54.678;9.110;2022-09-09T12:03:34;10.25;;;6.55;;
28822;SDS011;15961;54.678;9.110;2022-09-09T12:06:10;12.85;;;8.32;;
28822;SDS011;15961;54.678;9.110;2022-09-09T12:08:53;15.02;;;9.57;;
28822;SDS011;15961;54.678;9.110;2022-09-09T12:11:27;7.72;;;4.93;;
28822;SDS011;15961;54.678;9.110;2022-09-09T12:13:54;10.82;;;4.63;;
28822;SDS011;15961;54.678;9.110;2022-09-09T12:16:34;4.93;;;3.50;;
28822;SDS011;15961;54.678;9.110;2022-09-09T12:27:20;7.60;;;2.60;;
28822;SDS011;15961;54.678;9.110;2022-09-09T12:32:29;7.00;;;2.95;;
28822;SDS011;15961;54.678;9.110;2022-09-09T12:35:09;7.50;;;3.33;;
28822;SDS011;15961;54.678;9.110;2022-09-09T12:37:38;9.30;;;3.50;;
28822;SDS011;15961;54.678;9.110;2022-09-09T12:42:50;11.52;;;3.05;;
28822;SDS011;15961;54.678;9.110;2022-09-09T12:45:20;6.32;;;2.55;;
28822;SDS011;15961;54.678;9.110;2022-09-09T12:47:55;4.80;;;2.15;;
28822;SDS011;15961;54.678;9.110;2022-09-09T12:50:24;7.20;;;2.20;;
28822;SDS011;15961;54.678;9.110;2022-09-09T12:52:57;6.25;;;2.00;;
28822;SDS011;15961;54.678;9.110;2022-09-09T12:55:31;7.80;;;2.33;;
28822;SDS011;15961;54.678;9.110;2022-09-09T12:57:58;5.53;;;1.92;;
28822;SDS011;15961;54.678;9.110;2022-09-09T13:00:29;5.75;;;2.30;;
28822;SDS011;15961;54.678;9.110;2022-09-09T13:02:56;4.72;;;2.05;;
28822;SDS011;15961;54.678;9.110;2022-09-09T13:05:25;6.15;;;1.95;;
28822;SDS011;15961;54.678;9.110;2022-09-09T13:08:00;11.00;;;2.08;;
28822;SDS011;15961;54.678;9.110;2022-09-09T13:10:40;8.77;;;2.33;;
28822;SDS011;15961;54.678;9.110;2022-09-09T13:13:28;6.00;;;2.00;;
28822;SDS011;15961;54.678;9.110;2022-09-09T13:16:01;7.10;;;1.83;;
28822;SDS011;15961;54.678;9.110;2022-09-09T13:18:30;10.02;;;1.90;;
28822;SDS011;15961;54.678;9.110;2022-09-09T13:21:03;15.32;;;2.10;;
28822;SDS011;15961;54.678;9.110;2022-09-09T13:23:30;6.65;;;1.35;;
28822;SDS011;15961;54.678;9.110;2022-09-09T13:26:01;6.22;;;1.75;;
28822;SDS011;15961;54.678;9.110;2022-09-09T13:28:31;7.07;;;1.90;;
28822;SDS011;15961;54.678;9.110;2022-09-09T13:30:58;3.50;;;1.15;;
28822;SDS011;15961;54.678;9.110;2022-09-09T13:33:29;3.08;;;1.42;;
28822;SDS011;15961;54.678;9.110;2022-09-09T13:36:09;6.70;;;1.70;;
28822;SDS011;15961;54.678;9.110;2022-09-09T13:38:36;7.70;;;1.52;;
28822;SDS011;15961;54.678;9.110;2022-09-09T13:41:25;5.13;;;1.40;;
28822;SDS011;15961;54.678;9.110;2022-09-09T13:46:32;8.90;;;2.22;;
28822;SDS011;15961;54.678;9.110;2022-09-09T13:49:01;5.72;;;1.67;;
28822;SDS011;15961;54.678;9.110;2022-09-09T13:51:44;6.07;;;1.52;;
28822;SDS011;15961;54.678;9.110;2022-09-09T13:54:15;4.85;;;1.23;;
28822;SDS011;15961;54.678;9.110;2022-09-09T13:56:43;6.95;;;1.70;;
28822;SDS011;15961;54.678;9.110;2022-09-09T13:59:14;3.60;;;1.05;;
28822;SDS011;15961;54.678;9.110;2022-09-09T14:01:46;2.40;;;0.82;;
28822;SDS011;15961;54.678;9.110;2022-09-09T14:04:12;5.07;;;1.65;;
28822;SDS011;15961;54.678;9.110;2022-09-09T14:06:38;2.90;;;0.50;;
28822;SDS011;15961;54.678;9.110;2022-09-09T14:09:05;5.18;;;1.10;;
28822;SDS011;15961;54.678;9.110;2022-09-09T14:11:33;2.70;;;0.70;;
28822;SDS011;15961;54.678;9.110;2022-09-09T14:13:59;5.00;;;0.85;;
28822;SDS011;15961;54.678;9.110;2022-09-09T14:16:25;3.05;;;1.15;;
28822;SDS011;15961;54.678;9.110;2022-09-09T14:18:52;2.33;;;0.85;;
28822;SDS011;15961;54.678;9.110;2022-09-09T14:21:21;2.80;;;0.80;;
28822;SDS011;15961;54.678;9.110;2022-09-09T14:23:46;3.25;;;0.55;;
28822;SDS011;15961;54.678;9.110;2022-09-09T14:26:13;4.53;;;1.15;;
28822;SDS011;15961;54.678;9.110;2022-09-09T14:28:39;2.72;;;0.73;;
28822;SDS011;15961;54.678;9.110;2022-09-09T14:31:05;3.05;;;1.00;;
28822;SDS011;15961;54.678;9.110;2022-09-09T14:33:31;2.55;;;0.90;;
28822;SDS011;15961;54.678;9.110;2022-09-09T14:36:00;5.45;;;1.17;;
28822;SDS011;15961;54.678;9.110;2022-09-09T14:38:31;4.70;;;1.42;;
28822;SDS011;15961;54.678;9.110;2022-09-09T14:41:03;6.75;;;0.98;;
28822;SDS011;15961;54.678;9.110;2022-09-09T14:43:29;2.42;;;0.80;;
28822;SDS011;15961;54.678;9.110;2022-09-09T14:45:57;4.65;;;0.75;;
28822;SDS011;15961;54.678;9.110;2022-09-09T14:48:30;3.60;;;1.00;;
28822;SDS011;15961;54.678;9.110;2022-09-09T14:50:56;1.70;;;0.82;;
28822;SDS011;15961;54.678;9.110;2022-09-09T14:53:21;5.88;;;1.08;;
28822;SDS011;15961;54.678;9.110;2022-09-09T14:55:47;4.13;;;1.20;;
28822;SDS011;15961;54.678;9.110;2022-09-09T14:58:13;2.97;;;0.77;;
28822;SDS011;15961;54.678;9.110;2022-09-09T15:00:38;7.57;;;1.10;;
28822;SDS011;15961;54.678;9.110;2022-09-09T15:03:04;1.48;;;0.63;;
28822;SDS011;15961;54.678;9.110;2022-09-09T15:05:30;5.18;;;0.90;;
28822;SDS011;15961;54.678;9.110;2022-09-09T15:07:56;5.22;;;0.90;;
28822;SDS011;15961;54.678;9.110;2022-09-09T15:10:23;2.63;;;0.77;;
28822;SDS011;15961;54.678;9.110;2022-09-09T15:12:49;7.00;;;1.00;;
28822;SDS011;15961;54.678;9.110;2022-09-09T15:15:14;3.38;;;0.88;;
28822;SDS011;15961;54.678;9.110;2022-09-09T15:17:40;3.17;;;0.90;;
28822;SDS011;15961;54.678;9.110;2022-09-09T15:20:05;2.97;;;1.05;;
28822;SDS011;15961;54.678;9.110;2022-09-09T15:22:32;4.90;;;0.75;;
28822;SDS011;15961;54.678;9.110;2022-09-09T15:24:58;5.32;;;1.17;;
28822;SDS011;15961;54.678;9.110;2022-09-09T15:27:24;3.42;;;0.80;;
28822;SDS011;15961;54.678;9.110;2022-09-09T15:29:49;1.98;;;0.65;;
28822;SDS011;15961;54.678;9.110;2022-09-09T15:32:16;6.18;;;0.80;;
28822;SDS011;15961;54.678;9.110;2022-09-09T15:34:42;2.17;;;1.00;;
28822;SDS011;15961;54.678;9.110;2022-09-09T15:37:09;2.63;;;0.47;;
28822;SDS011;15961;54.678;9.110;2022-09-09T15:39:37;2.67;;;1.02;;
28822;SDS011;15961;54.678;9.110;2022-09-09T15:42:03;2.90;;;0.90;;
28822;SDS011;15961;54.678;9.110;2022-09-09T15:44:29;2.13;;;1.13;;
28822;SDS011;15961;54.678;9.110;2022-09-09T15:47:02;2.95;;;1.65;;
28822;SDS011;15961;54.678;9.110;2022-09-09T15:49:28;3.97;;;1.17;;
28822;SDS011;15961;54.678;9.110;2022-09-09T15:51:57;3.13;;;0.88;;
28822;SDS011;15961;54.678;9.110;2022-09-09T15:54:27;3.58;;;1.20;;
28822;SDS011;15961;54.678;9.110;2022-09-09T15:56:56;2.45;;;1.00;;
28822;SDS011;15961;54.678;9.110;2022-09-09T15:59:24;1.88;;;0.75;;
28822;SDS011;15961;54.678;9.110;2022-09-09T16:01:52;3.03;;;0.75;;
28822;SDS011;15961;54.678;9.110;2022-09-09T16:04:19;4.20;;;1.10;;
28822;SDS011;15961;54.678;9.110;2022-09-09T16:06:53;3.90;;;0.90;;
28822;SDS011;15961;54.678;9.110;2022-09-09T16:09:20;6.43;;;0.93;;
28822;SDS011;15961;54.678;9.110;2022-09-09T16:11:46;1.98;;;0.88;;
28822;SDS011;15961;54.678;9.110;2022-09-09T16:14:13;6.45;;;0.70;;
28822;SDS011;15961;54.678;9.110;2022-09-09T16:16:40;3.30;;;1.00;;
28822;SDS011;15961;54.678;9.110;2022-09-09T16:19:07;2.38;;;0.73;;
28822;SDS011;15961;54.678;9.110;2022-09-09T16:21:43;4.75;;;0.80;;
28822;SDS011;15961;54.678;9.110;2022-09-09T16:24:12;1.98;;;0.63;;
28822;SDS011;15961;54.678;9.110;2022-09-09T16:26:41;3.63;;;1.05;;
28822;SDS011;15961;54.678;9.110;2022-09-09T16:29:10;1.27;;;0.63;;
28822;SDS011;15961;54.678;9.110;2022-09-09T16:31:36;8.98;;;1.65;;
28822;SDS011;15961;54.678;9.110;2022-09-09T16:34:02;5.38;;;1.95;;
28822;SDS011;15961;54.678;9.110;2022-09-09T16:36:31;3.90;;;1.63;;
28822;SDS011;15961;54.678;9.110;2022-09-09T16:39:03;3.42;;;1.45;;
28822;SDS011;15961;54.678;9.110;2022-09-09T16:41:31;7.80;;;1.10;;
28822;SDS011;15961;54.678;9.110;2022-09-09T16:43:59;3.67;;;1.13;;
28822;SDS011;15961;54.678;9.110;2022-09-09T16:46:27;11.75;;;1.23;;
28822;SDS011;15961;54.678;9.110;2022-09-09T16:48:53;4.50;;;1.17;;
28822;SDS011;15961;54.678;9.110;2022-09-09T16:51:22;13.02;;;1.42;;
28822;SDS011;15961;54.678;9.110;2022-09-09T16:53:57;6.53;;;1.20;;
28822;SDS011;15961;54.678;9.110;2022-09-09T16:56:26;4.05;;;2.03;;